VCP44R EFHK-EGLL
Flight info
| Callsign | VCP44R |
|---|---|
| Flight time | 2h 27m |
| Altitude | 40000 |
| Route | NUNTO5C NUNTO Y367 OLPED DCT OBEVI DCT NISIX DCT DOROR DCT LONAM DCT BINBO DCT AKOKO N866 BUKUT P7 BARMI BARMI1H |
| Aircraft | A359/H-SDE2E3GHIJ3J4J5LM1ORWXY/LB1D1 |
Departure
| Time | 2026-04-23 19:10 |
|---|---|
| Airport | Helsinki Vantaa Airport (EFHK) |
Arrival
| Time | 2026-04-23 21:38 |
|---|---|
| Airport | London Heathrow Airport (EGLL) |
| Time | Latitude | Longitude | Altitude | Speed | Heading |
|---|---|---|---|---|---|
| 2026-04-23 18:32 | 60.31389 | 24.95857 | 173 ft | 0 kts | 328° |
| 2026-04-23 18:57 | 60.31395 | 24.95849 | 173 ft | 4 kts | 328° |
| 2026-04-23 18:57 | 60.31419 | 24.95819 | 173 ft | 4 kts | 328° |
| 2026-04-23 18:58 | 60.31404 | 24.95838 | 173 ft | 4 kts | 324° |
| 2026-04-23 18:58 | 60.31383 | 24.95872 | 173 ft | 4 kts | 317° |
| 2026-04-23 18:58 | 60.31364 | 24.95911 | 173 ft | 4 kts | 308° |
| 2026-04-23 18:58 | 60.31350 | 24.95955 | 173 ft | 4 kts | 289° |
| 2026-04-23 18:59 | 60.31348 | 24.96002 | 173 ft | 3 kts | 236° |
| 2026-04-23 18:59 | 60.31342 | 24.95990 | 173 ft | 0 kts | 227° |
| 2026-04-23 19:01 | 60.31334 | 24.95973 | 173 ft | 6 kts | 229° |
| 2026-04-23 19:01 | 60.31299 | 24.95890 | 173 ft | 9 kts | 228° |
| 2026-04-23 19:02 | 60.31268 | 24.95822 | 173 ft | 11 kts | 226° |
| 2026-04-23 19:02 | 60.31190 | 24.95652 | 173 ft | 14 kts | 226° |
| 2026-04-23 19:02 | 60.31112 | 24.95518 | 173 ft | 16 kts | 224° |
| 2026-04-23 19:02 | 60.31030 | 24.95348 | 173 ft | 14 kts | 227° |
| 2026-04-23 19:03 | 60.31013 | 24.95173 | 174 ft | 13 kts | 300° |
| 2026-04-23 19:03 | 60.31074 | 24.95060 | 175 ft | 10 kts | 322° |
| 2026-04-23 19:03 | 60.31090 | 24.95036 | 175 ft | 0 kts | 324° |
| 2026-04-23 19:04 | 60.31097 | 24.95026 | 174 ft | 4 kts | 326° |
| 2026-04-23 19:04 | 60.31142 | 24.94961 | 173 ft | 12 kts | 321° |
| 2026-04-23 19:05 | 60.31220 | 24.94826 | 170 ft | 15 kts | 318° |
| 2026-04-23 19:05 | 60.31297 | 24.94685 | 167 ft | 12 kts | 309° |
| 2026-04-23 19:05 | 60.31292 | 24.94561 | 165 ft | 12 kts | 238° |
| 2026-04-23 19:05 | 60.31224 | 24.94413 | 165 ft | 16 kts | 226° |
| 2026-04-23 19:06 | 60.31140 | 24.94223 | 164 ft | 20 kts | 229° |
| 2026-04-23 19:06 | 60.31060 | 24.94039 | 164 ft | 11 kts | 231° |
| 2026-04-23 19:06 | 60.31033 | 24.93934 | 165 ft | 2 kts | 262° |
| 2026-04-23 19:06 | 60.31037 | 24.93879 | 165 ft | 6 kts | 283° |
| 2026-04-23 19:07 | 60.31065 | 24.93779 | 165 ft | 10 kts | 306° |
| 2026-04-23 19:07 | 60.31130 | 24.93698 | 164 ft | 11 kts | 4° |
| 2026-04-23 19:07 | 60.31189 | 24.93770 | 165 ft | 0 kts | 45° |
| 2026-04-23 19:08 | 60.31192 | 24.93777 | 165 ft | 2 kts | 45° |
| 2026-04-23 19:08 | 60.31206 | 24.93806 | 165 ft | 4 kts | 46° |
| 2026-04-23 19:08 | 60.31207 | 24.93808 | 165 ft | 0 kts | 47° |
| 2026-04-23 19:09 | 60.31208 | 24.93809 | 165 ft | 1 kts | 47° |
| 2026-04-23 19:10 | 60.31357 | 24.94136 | 167 ft | 69 kts | 47° |
| 2026-04-23 19:10 | 60.31840 | 24.95204 | 180 ft | 134 kts | 47° |
| 2026-04-23 19:10 | 60.32565 | 24.96839 | 486 ft | 160 kts | 49° |
| 2026-04-23 19:10 | 60.33023 | 24.97949 | 1062 ft | 153 kts | 49° |
| 2026-04-23 19:11 | 60.33782 | 24.99635 | 1445 ft | 175 kts | 45° |
| 2026-04-23 19:11 | 60.34689 | 25.01554 | 1694 ft | 202 kts | 45° |
| 2026-04-23 19:11 | 60.35695 | 25.03720 | 2040 ft | 220 kts | 46° |
| 2026-04-23 19:11 | 60.36782 | 25.06093 | 2267 ft | 239 kts | 46° |
| 2026-04-23 19:12 | 60.37932 | 25.08627 | 2668 ft | 248 kts | 46° |
| 2026-04-23 19:12 | 60.39137 | 25.11141 | 3149 ft | 250 kts | 39° |
| 2026-04-23 19:12 | 60.40674 | 25.12704 | 3624 ft | 248 kts | 10° |
| 2026-04-23 19:12 | 60.42387 | 25.12999 | 4144 ft | 248 kts | 0° |
| 2026-04-23 19:13 | 60.44120 | 25.13031 | 4616 ft | 249 kts | 359° |
| 2026-04-23 19:13 | 60.45853 | 25.13050 | 5122 ft | 250 kts | 359° |
| 2026-04-23 19:13 | 60.47583 | 25.12709 | 5612 ft | 250 kts | 345° |
| 2026-04-23 19:13 | 60.49144 | 25.11208 | 6096 ft | 251 kts | 323° |
| 2026-04-23 19:14 | 60.50292 | 25.08540 | 6631 ft | 255 kts | 301° |
| 2026-04-23 19:14 | 60.50953 | 25.05233 | 7126 ft | 259 kts | 290° |
| 2026-04-23 19:14 | 60.51254 | 25.01593 | 7601 ft | 267 kts | 274° |
| 2026-04-23 19:14 | 60.50847 | 24.97876 | 8095 ft | 278 kts | 247° |
| 2026-04-23 19:15 | 60.49789 | 24.94549 | 8599 ft | 284 kts | 237° |
| 2026-04-23 19:15 | 60.48633 | 24.91286 | 9059 ft | 285 kts | 243° |
| 2026-04-23 19:15 | 60.47667 | 24.87770 | 9555 ft | 286 kts | 247° |
| 2026-04-23 19:15 | 60.46758 | 24.84171 | 10020 ft | 288 kts | 249° |
| 2026-04-23 19:16 | 60.45866 | 24.80445 | 10282 ft | 299 kts | 250° |
| 2026-04-23 19:16 | 60.44961 | 24.76566 | 10454 ft | 310 kts | 250° |
| 2026-04-23 19:16 | 60.44025 | 24.72543 | 10606 ft | 321 kts | 250° |
| 2026-04-23 19:17 | 60.42059 | 24.64159 | 10868 ft | 338 kts | 250° |
| 2026-04-23 19:17 | 60.41032 | 24.59810 | 11221 ft | 348 kts | 250° |
| 2026-04-23 19:17 | 60.39974 | 24.55371 | 12099 ft | 351 kts | 250° |
| 2026-04-23 19:17 | 60.38903 | 24.50904 | 12968 ft | 355 kts | 251° |
| 2026-04-23 19:18 | 60.37816 | 24.46376 | 13740 ft | 361 kts | 251° |
| 2026-04-23 19:18 | 60.36714 | 24.41788 | 14518 ft | 365 kts | 251° |
| 2026-04-23 19:18 | 60.35595 | 24.37139 | 15263 ft | 370 kts | 252° |
| 2026-04-23 19:18 | 60.34463 | 24.32442 | 15979 ft | 375 kts | 252° |
| 2026-04-23 19:19 | 60.32150 | 24.22856 | 17434 ft | 384 kts | 252° |
| 2026-04-23 19:19 | 60.30967 | 24.17980 | 18144 ft | 390 kts | 253° |
| 2026-04-23 19:20 | 60.28553 | 24.08056 | 19499 ft | 400 kts | 253° |
| 2026-04-23 19:20 | 60.27320 | 24.03001 | 20200 ft | 404 kts | 253° |
| 2026-04-23 19:20 | 60.26070 | 23.97887 | 20848 ft | 409 kts | 253° |
| 2026-04-23 19:20 | 60.24804 | 23.92718 | 21474 ft | 414 kts | 253° |
| 2026-04-23 19:21 | 60.23517 | 23.87486 | 22122 ft | 419 kts | 253° |
| 2026-04-23 19:21 | 60.20913 | 23.76926 | 23302 ft | 429 kts | 254° |
| 2026-04-23 19:21 | 60.19578 | 23.71538 | 23886 ft | 434 kts | 253° |
| 2026-04-23 19:22 | 60.18224 | 23.66084 | 24450 ft | 438 kts | 254° |
| 2026-04-23 19:22 | 60.16852 | 23.60580 | 25075 ft | 441 kts | 254° |
| 2026-04-23 19:22 | 60.14079 | 23.49489 | 26164 ft | 449 kts | 254° |
| 2026-04-23 19:23 | 60.12671 | 23.43870 | 26701 ft | 452 kts | 255° |
| 2026-04-23 19:23 | 60.11252 | 23.38221 | 27241 ft | 455 kts | 255° |
| 2026-04-23 19:23 | 60.09819 | 23.32533 | 27746 ft | 459 kts | 255° |
| 2026-04-23 19:24 | 60.06910 | 23.21034 | 28755 ft | 466 kts | 255° |
| 2026-04-23 19:24 | 60.05440 | 23.15244 | 29290 ft | 467 kts | 255° |
| 2026-04-23 19:24 | 60.02463 | 23.03577 | 30174 ft | 474 kts | 255° |
| 2026-04-23 19:25 | 59.99435 | 22.91767 | 31020 ft | 480 kts | 255° |
| 2026-04-23 19:25 | 59.96351 | 22.79773 | 31595 ft | 491 kts | 254° |
| 2026-04-23 19:26 | 59.93200 | 22.67619 | 32380 ft | 495 kts | 253° |
| 2026-04-23 19:26 | 59.91636 | 22.61588 | 32719 ft | 497 kts | 254° |
| 2026-04-23 19:27 | 59.88463 | 22.49271 | 33365 ft | 502 kts | 253° |
| 2026-04-23 19:27 | 59.83683 | 22.30614 | 34192 ft | 507 kts | 255° |
| 2026-04-23 19:28 | 59.80450 | 22.18179 | 34908 ft | 505 kts | 253° |
| 2026-04-23 19:28 | 59.77213 | 22.05799 | 35464 ft | 505 kts | 255° |
| 2026-04-23 19:29 | 59.75603 | 21.99591 | 35722 ft | 505 kts | 255° |
| 2026-04-23 19:29 | 59.72382 | 21.87216 | 36171 ft | 505 kts | 254° |
| 2026-04-23 19:30 | 59.69109 | 21.74968 | 36610 ft | 506 kts | 253° |
| 2026-04-23 19:30 | 59.67445 | 21.68837 | 36840 ft | 506 kts | 253° |
| 2026-04-23 19:30 | 59.64104 | 21.56665 | 37519 ft | 499 kts | 253° |
| 2026-04-23 19:31 | 59.62447 | 21.50652 | 37785 ft | 498 kts | 252° |
| 2026-04-23 19:31 | 59.60795 | 21.44645 | 37956 ft | 497 kts | 252° |
| 2026-04-23 19:31 | 59.59143 | 21.38641 | 38128 ft | 498 kts | 252° |
| 2026-04-23 19:31 | 59.57490 | 21.32641 | 38277 ft | 498 kts | 252° |
| 2026-04-23 19:32 | 59.55830 | 21.26632 | 38445 ft | 498 kts | 252° |
| 2026-04-23 19:32 | 59.54171 | 21.20639 | 38609 ft | 498 kts | 252° |
| 2026-04-23 19:32 | 59.52505 | 21.14643 | 38754 ft | 498 kts | 252° |
| 2026-04-23 19:32 | 59.50837 | 21.08655 | 38895 ft | 499 kts | 252° |
| 2026-04-23 19:33 | 59.49164 | 21.02670 | 39040 ft | 499 kts | 252° |
| 2026-04-23 19:33 | 59.47490 | 20.96696 | 39182 ft | 499 kts | 252° |
| 2026-04-23 19:33 | 59.44064 | 20.84809 | 39570 ft | 500 kts | 246° |
| 2026-04-23 19:34 | 59.42280 | 20.78949 | 39787 ft | 499 kts | 246° |
| 2026-04-23 19:34 | 59.40526 | 20.73144 | 39909 ft | 500 kts | 247° |
| 2026-04-23 19:35 | 59.35289 | 20.55190 | 39934 ft | 503 kts | 248° |
| 2026-04-23 19:35 | 59.31866 | 20.43215 | 39938 ft | 503 kts | 248° |
| 2026-04-23 19:36 | 59.28733 | 20.31152 | 39944 ft | 498 kts | 252° |
| 2026-04-23 19:36 | 59.25866 | 20.18841 | 39945 ft | 498 kts | 253° |
| 2026-04-23 19:37 | 59.22963 | 20.06547 | 39943 ft | 498 kts | 252° |
| 2026-04-23 19:37 | 59.19986 | 19.94312 | 39941 ft | 499 kts | 252° |
| 2026-04-23 19:38 | 59.16976 | 19.82135 | 39948 ft | 497 kts | 252° |
| 2026-04-23 19:38 | 59.13963 | 19.70012 | 39966 ft | 497 kts | 252° |
| 2026-04-23 19:39 | 59.10935 | 19.57879 | 39960 ft | 497 kts | 251° |
| 2026-04-23 19:39 | 59.07902 | 19.45785 | 39959 ft | 497 kts | 251° |
| 2026-04-23 19:40 | 59.04876 | 19.33791 | 39964 ft | 497 kts | 251° |
| 2026-04-23 19:40 | 59.01820 | 19.21741 | 39964 ft | 497 kts | 251° |
| 2026-04-23 19:41 | 58.98762 | 19.09748 | 39965 ft | 496 kts | 251° |
| 2026-04-23 19:41 | 58.95690 | 18.97764 | 39963 ft | 497 kts | 251° |
| 2026-04-23 19:42 | 58.92605 | 18.85802 | 39966 ft | 496 kts | 251° |
| 2026-04-23 19:42 | 58.89512 | 18.73861 | 39965 ft | 496 kts | 251° |
| 2026-04-23 19:43 | 58.86410 | 18.61958 | 39976 ft | 495 kts | 251° |
| 2026-04-23 19:43 | 58.83298 | 18.50079 | 39974 ft | 495 kts | 251° |
| 2026-04-23 19:44 | 58.80178 | 18.38223 | 39981 ft | 495 kts | 251° |
| 2026-04-23 19:44 | 58.77065 | 18.26458 | 39984 ft | 495 kts | 251° |
| 2026-04-23 19:45 | 58.73925 | 18.14652 | 39981 ft | 495 kts | 250° |
| 2026-04-23 19:45 | 58.70768 | 18.02859 | 39982 ft | 495 kts | 250° |
| 2026-04-23 19:46 | 58.67605 | 17.91095 | 39977 ft | 494 kts | 250° |
| 2026-04-23 19:46 | 58.64437 | 17.79376 | 39976 ft | 494 kts | 250° |
| 2026-04-23 19:47 | 58.61801 | 17.69670 | 39982 ft | 493 kts | 250° |
| 2026-04-23 19:47 | 58.58083 | 17.56045 | 39981 ft | 494 kts | 250° |
| 2026-04-23 19:48 | 58.54885 | 17.44393 | 39963 ft | 493 kts | 250° |
| 2026-04-23 19:48 | 58.51684 | 17.32795 | 39963 ft | 493 kts | 250° |
| 2026-04-23 19:49 | 58.48496 | 17.21297 | 39969 ft | 492 kts | 250° |
| 2026-04-23 19:49 | 58.45275 | 17.09725 | 39966 ft | 492 kts | 250° |
| 2026-04-23 19:50 | 58.42046 | 16.98199 | 39970 ft | 492 kts | 249° |
| 2026-04-23 19:50 | 58.38811 | 16.86712 | 39985 ft | 492 kts | 249° |
| 2026-04-23 19:51 | 58.35567 | 16.75253 | 39984 ft | 491 kts | 249° |
| 2026-04-23 19:51 | 58.32322 | 16.63842 | 39992 ft | 490 kts | 249° |
| 2026-04-23 19:52 | 58.29614 | 16.54362 | 39992 ft | 491 kts | 249° |
| 2026-04-23 19:52 | 58.25817 | 16.41132 | 39991 ft | 490 kts | 249° |
| 2026-04-23 19:53 | 58.22546 | 16.29793 | 39992 ft | 489 kts | 249° |
| 2026-04-23 19:53 | 58.19268 | 16.18485 | 39997 ft | 489 kts | 249° |
| 2026-04-23 19:54 | 58.15977 | 16.07195 | 39999 ft | 489 kts | 248° |
| 2026-04-23 19:54 | 58.12676 | 15.95928 | 40001 ft | 489 kts | 248° |
| 2026-04-23 19:55 | 58.09367 | 15.84684 | 39998 ft | 489 kts | 248° |
| 2026-04-23 19:55 | 58.06045 | 15.73446 | 40000 ft | 489 kts | 248° |
| 2026-04-23 19:56 | 58.02718 | 15.62249 | 39995 ft | 489 kts | 248° |
| 2026-04-23 19:56 | 57.99381 | 15.51081 | 40008 ft | 488 kts | 248° |
| 2026-04-23 19:57 | 57.96060 | 15.40004 | 40026 ft | 488 kts | 248° |
| 2026-04-23 19:57 | 57.93255 | 15.30692 | 40024 ft | 488 kts | 248° |
| 2026-04-23 19:58 | 57.89350 | 15.17792 | 40029 ft | 488 kts | 247° |
| 2026-04-23 19:58 | 57.86526 | 15.08510 | 40027 ft | 487 kts | 247° |
| 2026-04-23 19:59 | 57.83181 | 14.97561 | 40036 ft | 486 kts | 247° |
| 2026-04-23 19:59 | 57.79807 | 14.86572 | 40035 ft | 485 kts | 247° |
| 2026-04-23 20:00 | 57.76431 | 14.75623 | 40034 ft | 484 kts | 247° |
| 2026-04-23 20:00 | 57.73054 | 14.64724 | 40045 ft | 483 kts | 246° |
| 2026-04-23 20:01 | 57.69674 | 14.53864 | 40043 ft | 482 kts | 246° |
| 2026-04-23 20:01 | 57.66294 | 14.43052 | 40046 ft | 482 kts | 246° |
| 2026-04-23 20:02 | 57.62901 | 14.32250 | 40043 ft | 482 kts | 246° |
| 2026-04-23 20:02 | 57.59504 | 14.21485 | 40045 ft | 481 kts | 246° |
| 2026-04-23 20:03 | 57.56122 | 14.10817 | 40044 ft | 481 kts | 246° |
| 2026-04-23 20:03 | 57.52705 | 14.00085 | 40050 ft | 481 kts | 246° |
| 2026-04-23 20:04 | 57.49284 | 13.89391 | 40042 ft | 480 kts | 245° |
| 2026-04-23 20:04 | 57.45863 | 13.78746 | 40045 ft | 480 kts | 245° |
| 2026-04-23 20:05 | 57.42433 | 13.68117 | 40062 ft | 480 kts | 245° |
| 2026-04-23 20:05 | 57.38995 | 13.57511 | 40060 ft | 480 kts | 245° |
| 2026-04-23 20:06 | 57.35545 | 13.46918 | 40058 ft | 480 kts | 245° |
| 2026-04-23 20:06 | 57.32088 | 13.36351 | 40055 ft | 480 kts | 245° |
| 2026-04-23 20:07 | 57.28621 | 13.25798 | 40052 ft | 480 kts | 245° |
| 2026-04-23 20:07 | 57.25148 | 13.15277 | 40056 ft | 479 kts | 244° |
| 2026-04-23 20:08 | 57.21670 | 13.04782 | 40075 ft | 479 kts | 244° |
| 2026-04-23 20:08 | 57.18207 | 12.94381 | 40076 ft | 479 kts | 244° |
| 2026-04-23 20:09 | 57.14714 | 12.83937 | 40061 ft | 478 kts | 244° |
| 2026-04-23 20:09 | 57.11217 | 12.73526 | 40077 ft | 478 kts | 244° |
| 2026-04-23 20:10 | 57.07712 | 12.63135 | 40075 ft | 477 kts | 244° |
| 2026-04-23 20:10 | 57.04204 | 12.52783 | 40067 ft | 477 kts | 243° |
| 2026-04-23 20:11 | 57.00685 | 12.42438 | 40075 ft | 477 kts | 243° |
| 2026-04-23 20:11 | 56.97185 | 12.32198 | 40076 ft | 477 kts | 243° |
| 2026-04-23 20:12 | 56.93658 | 12.21920 | 40082 ft | 477 kts | 243° |
| 2026-04-23 20:12 | 56.90117 | 12.11644 | 40082 ft | 477 kts | 243° |
| 2026-04-23 20:13 | 56.86567 | 12.01387 | 40083 ft | 477 kts | 243° |
| 2026-04-23 20:13 | 56.83013 | 11.91164 | 40090 ft | 476 kts | 242° |
| 2026-04-23 20:14 | 56.79466 | 11.81006 | 40096 ft | 474 kts | 242° |
| 2026-04-23 20:14 | 56.75933 | 11.70928 | 40101 ft | 474 kts | 242° |
| 2026-04-23 20:15 | 56.72376 | 11.60821 | 40101 ft | 474 kts | 242° |
| 2026-04-23 20:15 | 56.68811 | 11.50735 | 40114 ft | 474 kts | 242° |
| 2026-04-23 20:16 | 56.65236 | 11.40665 | 40119 ft | 474 kts | 242° |
| 2026-04-23 20:16 | 56.61655 | 11.30618 | 40119 ft | 474 kts | 241° |
| 2026-04-23 20:17 | 56.58066 | 11.20594 | 40127 ft | 473 kts | 241° |
| 2026-04-23 20:17 | 56.54471 | 11.10589 | 40127 ft | 473 kts | 241° |
| 2026-04-23 20:18 | 56.50875 | 11.00628 | 40127 ft | 472 kts | 241° |
| 2026-04-23 20:18 | 56.47297 | 10.90755 | 40125 ft | 472 kts | 241° |
| 2026-04-23 20:19 | 56.43689 | 10.80840 | 40132 ft | 472 kts | 240° |
| 2026-04-23 20:19 | 56.40075 | 10.70947 | 40130 ft | 471 kts | 240° |
| 2026-04-23 20:20 | 56.36457 | 10.61087 | 40129 ft | 471 kts | 240° |
| 2026-04-23 20:20 | 56.32831 | 10.51243 | 40128 ft | 471 kts | 240° |
| 2026-04-23 20:21 | 56.29203 | 10.41432 | 40129 ft | 471 kts | 240° |
| 2026-04-23 20:21 | 56.25563 | 10.31629 | 40129 ft | 470 kts | 239° |
| 2026-04-23 20:22 | 56.21918 | 10.21853 | 40136 ft | 470 kts | 239° |
| 2026-04-23 20:22 | 56.18292 | 10.12165 | 40137 ft | 470 kts | 239° |
| 2026-04-23 20:23 | 56.14636 | 10.02437 | 40140 ft | 470 kts | 239° |
| 2026-04-23 20:23 | 56.10968 | 9.92715 | 40157 ft | 470 kts | 239° |
| 2026-04-23 20:24 | 56.07296 | 9.83023 | 40163 ft | 470 kts | 239° |
| 2026-04-23 20:24 | 56.03617 | 9.73349 | 40165 ft | 470 kts | 239° |
| 2026-04-23 20:25 | 55.99930 | 9.63695 | 40172 ft | 470 kts | 239° |
| 2026-04-23 20:25 | 55.96234 | 9.54053 | 40174 ft | 471 kts | 239° |
| 2026-04-23 20:26 | 55.92525 | 9.44415 | 40174 ft | 471 kts | 238° |
| 2026-04-23 20:26 | 55.88808 | 9.34796 | 40176 ft | 471 kts | 238° |
| 2026-04-23 20:27 | 55.85081 | 9.25188 | 40183 ft | 471 kts | 238° |
| 2026-04-23 20:27 | 55.81347 | 9.15600 | 40180 ft | 471 kts | 238° |
| 2026-04-23 20:28 | 55.77604 | 9.06028 | 40180 ft | 471 kts | 238° |
| 2026-04-23 20:28 | 55.73882 | 8.96543 | 40191 ft | 471 kts | 237° |
| 2026-04-23 20:29 | 55.70127 | 8.87013 | 40194 ft | 471 kts | 237° |
| 2026-04-23 20:29 | 55.66368 | 8.77510 | 40201 ft | 471 kts | 237° |
| 2026-04-23 20:30 | 55.62603 | 8.68028 | 40216 ft | 470 kts | 237° |
| 2026-04-23 20:30 | 55.56950 | 8.53860 | 40232 ft | 470 kts | 237° |
| 2026-04-23 20:31 | 55.53124 | 8.44507 | 40251 ft | 470 kts | 234° |
| 2026-04-23 20:31 | 55.49026 | 8.35502 | 40250 ft | 470 kts | 233° |
| 2026-04-23 20:32 | 55.44893 | 8.26550 | 40250 ft | 470 kts | 233° |
| 2026-04-23 20:32 | 55.40754 | 8.17625 | 40251 ft | 470 kts | 233° |
| 2026-04-23 20:33 | 55.36614 | 8.08733 | 40247 ft | 470 kts | 233° |
| 2026-04-23 20:33 | 55.32462 | 7.99848 | 40247 ft | 470 kts | 232° |
| 2026-04-23 20:34 | 55.28304 | 7.90983 | 40260 ft | 470 kts | 232° |
| 2026-04-23 20:34 | 55.24167 | 7.82196 | 40255 ft | 470 kts | 232° |
| 2026-04-23 20:35 | 55.19996 | 7.73368 | 40253 ft | 470 kts | 232° |
| 2026-04-23 20:35 | 55.15815 | 7.64550 | 40250 ft | 470 kts | 231° |
| 2026-04-23 20:36 | 55.11629 | 7.55752 | 40261 ft | 470 kts | 231° |
| 2026-04-23 20:36 | 55.07437 | 7.46976 | 40255 ft | 471 kts | 231° |
| 2026-04-23 20:37 | 55.03237 | 7.38212 | 40249 ft | 471 kts | 231° |
| 2026-04-23 20:37 | 54.99029 | 7.29465 | 40269 ft | 471 kts | 231° |
| 2026-04-23 20:38 | 54.94817 | 7.20740 | 40265 ft | 471 kts | 231° |
| 2026-04-23 20:38 | 54.90592 | 7.12022 | 40270 ft | 471 kts | 231° |
| 2026-04-23 20:39 | 54.86363 | 7.03324 | 40300 ft | 471 kts | 230° |
| 2026-04-23 20:39 | 54.82124 | 6.94637 | 40310 ft | 471 kts | 230° |
| 2026-04-23 20:40 | 54.77910 | 6.86032 | 40316 ft | 471 kts | 230° |
| 2026-04-23 20:40 | 54.73665 | 6.77395 | 40331 ft | 471 kts | 230° |
| 2026-04-23 20:41 | 54.69406 | 6.68759 | 40341 ft | 471 kts | 230° |
| 2026-04-23 20:41 | 54.65151 | 6.60162 | 40343 ft | 471 kts | 230° |
| 2026-04-23 20:42 | 54.60891 | 6.51585 | 40348 ft | 471 kts | 230° |
| 2026-04-23 20:42 | 54.56615 | 6.43005 | 40350 ft | 471 kts | 229° |
| 2026-04-23 20:43 | 54.52338 | 6.34456 | 40358 ft | 471 kts | 229° |
| 2026-04-23 20:43 | 54.48056 | 6.25925 | 40359 ft | 471 kts | 229° |
| 2026-04-23 20:44 | 54.43768 | 6.17411 | 40362 ft | 471 kts | 229° |
| 2026-04-23 20:44 | 54.39499 | 6.08965 | 40365 ft | 472 kts | 229° |
| 2026-04-23 20:45 | 54.35190 | 6.00469 | 40367 ft | 472 kts | 229° |
| 2026-04-23 20:45 | 54.30879 | 5.92001 | 40367 ft | 471 kts | 229° |
| 2026-04-23 20:46 | 54.26564 | 5.83552 | 40366 ft | 471 kts | 229° |
| 2026-04-23 20:46 | 54.22242 | 5.75119 | 40377 ft | 471 kts | 228° |
| 2026-04-23 20:47 | 54.18646 | 5.68124 | 40386 ft | 471 kts | 228° |
| 2026-04-23 20:47 | 54.14316 | 5.59728 | 40384 ft | 471 kts | 228° |
| 2026-04-23 20:48 | 54.09969 | 5.51330 | 40387 ft | 471 kts | 228° |
| 2026-04-23 20:48 | 54.05660 | 5.43033 | 40387 ft | 470 kts | 228° |
| 2026-04-23 20:49 | 54.01317 | 5.34697 | 40389 ft | 470 kts | 228° |
| 2026-04-23 20:49 | 53.96974 | 5.26392 | 40394 ft | 470 kts | 227° |
| 2026-04-23 20:50 | 53.92616 | 5.18085 | 40394 ft | 472 kts | 227° |
| 2026-04-23 20:50 | 53.88248 | 5.09788 | 40394 ft | 472 kts | 227° |
| 2026-04-23 20:51 | 53.83867 | 5.01494 | 40394 ft | 472 kts | 227° |
| 2026-04-23 20:51 | 53.79482 | 4.93221 | 40399 ft | 471 kts | 227° |
| 2026-04-23 20:52 | 53.75096 | 4.84974 | 40404 ft | 471 kts | 227° |
| 2026-04-23 20:52 | 53.70714 | 4.76762 | 40404 ft | 471 kts | 227° |
| 2026-04-23 20:53 | 53.66324 | 4.68563 | 40404 ft | 471 kts | 226° |
| 2026-04-23 20:53 | 53.61958 | 4.60437 | 40404 ft | 470 kts | 226° |
| 2026-04-23 20:54 | 53.57532 | 4.52225 | 40403 ft | 470 kts | 226° |
| 2026-04-23 20:54 | 53.53132 | 4.44090 | 40403 ft | 470 kts | 226° |
| 2026-04-23 20:55 | 53.48732 | 4.35980 | 40407 ft | 469 kts | 226° |
| 2026-04-23 20:55 | 53.44356 | 4.27942 | 40413 ft | 470 kts | 226° |
| 2026-04-23 20:56 | 53.39941 | 4.19860 | 40413 ft | 470 kts | 226° |
| 2026-04-23 20:56 | 53.35523 | 4.11799 | 40416 ft | 470 kts | 226° |
| 2026-04-23 20:57 | 53.31096 | 4.03748 | 40422 ft | 470 kts | 226° |
| 2026-04-23 20:57 | 53.26665 | 3.95717 | 40422 ft | 470 kts | 226° |
| 2026-04-23 20:58 | 53.22233 | 3.87708 | 40422 ft | 469 kts | 225° |
| 2026-04-23 20:58 | 53.17795 | 3.79716 | 40422 ft | 469 kts | 225° |
| 2026-04-23 20:59 | 53.13351 | 3.71740 | 40421 ft | 470 kts | 225° |
| 2026-04-23 20:59 | 53.08898 | 3.63773 | 40422 ft | 470 kts | 225° |
| 2026-04-23 21:00 | 53.04432 | 3.55810 | 40430 ft | 470 kts | 225° |
| 2026-04-23 21:00 | 52.99966 | 3.47870 | 40431 ft | 471 kts | 225° |
| 2026-04-23 21:01 | 52.95493 | 3.39946 | 40431 ft | 471 kts | 225° |
| 2026-04-23 21:01 | 52.91009 | 3.32027 | 40431 ft | 471 kts | 225° |
| 2026-04-23 21:02 | 52.86521 | 3.24128 | 40432 ft | 471 kts | 225° |
| 2026-04-23 21:02 | 52.82057 | 3.16295 | 40426 ft | 471 kts | 225° |
| 2026-04-23 21:03 | 52.77561 | 3.08432 | 40422 ft | 471 kts | 225° |
| 2026-04-23 21:03 | 52.73056 | 3.00578 | 40422 ft | 471 kts | 225° |
| 2026-04-23 21:04 | 52.68550 | 2.92748 | 40422 ft | 471 kts | 225° |
| 2026-04-23 21:04 | 52.66295 | 2.88839 | 40305 ft | 467 kts | 224° |
| 2026-04-23 21:04 | 52.64061 | 2.84971 | 39637 ft | 467 kts | 224° |
| 2026-04-23 21:05 | 52.61822 | 2.81102 | 38686 ft | 464 kts | 224° |
| 2026-04-23 21:05 | 52.59603 | 2.77273 | 37469 ft | 462 kts | 224° |
| 2026-04-23 21:05 | 52.57389 | 2.73460 | 36171 ft | 460 kts | 224° |
| 2026-04-23 21:05 | 52.55183 | 2.69666 | 34814 ft | 458 kts | 223° |
| 2026-04-23 21:06 | 52.52981 | 2.65886 | 33358 ft | 458 kts | 223° |
| 2026-04-23 21:06 | 52.50772 | 2.62099 | 31836 ft | 459 kts | 223° |
| 2026-04-23 21:06 | 52.48476 | 2.58485 | 30459 ft | 457 kts | 217° |
| 2026-04-23 21:06 | 52.45867 | 2.55576 | 29981 ft | 447 kts | 207° |
| 2026-04-23 21:07 | 52.43147 | 2.53231 | 29729 ft | 434 kts | 204° |
| 2026-04-23 21:07 | 52.40468 | 2.51045 | 29495 ft | 427 kts | 204° |
| 2026-04-23 21:07 | 52.37840 | 2.48920 | 29243 ft | 427 kts | 204° |
| 2026-04-23 21:07 | 52.35178 | 2.46771 | 28998 ft | 426 kts | 204° |
| 2026-04-23 21:08 | 52.32522 | 2.44625 | 28741 ft | 426 kts | 204° |
| 2026-04-23 21:08 | 52.29870 | 2.42482 | 28487 ft | 424 kts | 204° |
| 2026-04-23 21:08 | 52.27223 | 2.40346 | 28243 ft | 424 kts | 204° |
| 2026-04-23 21:08 | 52.24578 | 2.38214 | 27987 ft | 423 kts | 204° |
| 2026-04-23 21:09 | 52.21944 | 2.36094 | 27731 ft | 422 kts | 204° |
| 2026-04-23 21:09 | 52.19314 | 2.33980 | 27492 ft | 421 kts | 204° |
| 2026-04-23 21:09 | 52.16689 | 2.31872 | 27248 ft | 420 kts | 204° |
| 2026-04-23 21:09 | 52.14070 | 2.29771 | 26992 ft | 419 kts | 204° |
| 2026-04-23 21:10 | 52.11518 | 2.27456 | 26735 ft | 421 kts | 211° |
| 2026-04-23 21:10 | 52.09242 | 2.24449 | 26494 ft | 423 kts | 223° |
| 2026-04-23 21:10 | 52.07242 | 2.20920 | 26245 ft | 424 kts | 226° |
| 2026-04-23 21:10 | 52.05308 | 2.17305 | 25994 ft | 423 kts | 226° |
| 2026-04-23 21:11 | 52.03376 | 2.13690 | 25744 ft | 423 kts | 226° |
| 2026-04-23 21:11 | 52.01448 | 2.10099 | 25503 ft | 422 kts | 226° |
| 2026-04-23 21:11 | 51.99513 | 2.06511 | 25409 ft | 422 kts | 226° |
| 2026-04-23 21:11 | 51.97577 | 2.02932 | 25410 ft | 422 kts | 226° |
| 2026-04-23 21:12 | 51.95643 | 1.99364 | 25412 ft | 421 kts | 226° |
| 2026-04-23 21:12 | 51.93705 | 1.95795 | 25412 ft | 421 kts | 226° |
| 2026-04-23 21:12 | 51.91795 | 1.92283 | 25412 ft | 421 kts | 226° |
| 2026-04-23 21:12 | 51.89851 | 1.88715 | 25413 ft | 421 kts | 226° |
| 2026-04-23 21:13 | 51.87911 | 1.85163 | 25412 ft | 421 kts | 226° |
| 2026-04-23 21:13 | 51.85970 | 1.81612 | 25413 ft | 421 kts | 226° |
| 2026-04-23 21:13 | 51.84031 | 1.78068 | 25413 ft | 421 kts | 226° |
| 2026-04-23 21:13 | 51.82090 | 1.74524 | 25413 ft | 421 kts | 226° |
| 2026-04-23 21:14 | 51.80148 | 1.70985 | 25412 ft | 421 kts | 226° |
| 2026-04-23 21:14 | 51.78205 | 1.67449 | 25412 ft | 421 kts | 226° |
| 2026-04-23 21:14 | 51.76326 | 1.63814 | 25355 ft | 423 kts | 232° |
| 2026-04-23 21:14 | 51.74944 | 1.59615 | 25253 ft | 427 kts | 247° |
| 2026-04-23 21:15 | 51.74266 | 1.54922 | 24580 ft | 432 kts | 260° |
| 2026-04-23 21:15 | 51.73954 | 1.50088 | 23883 ft | 433 kts | 263° |
| 2026-04-23 21:15 | 51.73681 | 1.45262 | 23219 ft | 431 kts | 263° |
| 2026-04-23 21:15 | 51.73398 | 1.40466 | 22566 ft | 429 kts | 263° |
| 2026-04-23 21:16 | 51.73103 | 1.35695 | 21919 ft | 426 kts | 262° |
| 2026-04-23 21:16 | 51.72800 | 1.30954 | 21268 ft | 423 kts | 262° |
| 2026-04-23 21:16 | 51.72495 | 1.26253 | 20625 ft | 420 kts | 263° |
| 2026-04-23 21:16 | 51.72187 | 1.21591 | 19988 ft | 416 kts | 263° |
| 2026-04-23 21:17 | 51.71880 | 1.16970 | 19355 ft | 413 kts | 263° |
| 2026-04-23 21:17 | 51.71572 | 1.12385 | 18729 ft | 409 kts | 263° |
| 2026-04-23 21:17 | 51.71269 | 1.07898 | 18115 ft | 405 kts | 263° |
| 2026-04-23 21:17 | 51.70964 | 1.03408 | 17495 ft | 401 kts | 263° |
| 2026-04-23 21:18 | 51.70661 | 0.98970 | 16897 ft | 397 kts | 263° |
| 2026-04-23 21:18 | 51.70357 | 0.94559 | 16289 ft | 393 kts | 263° |
| 2026-04-23 21:18 | 51.70062 | 0.90228 | 15828 ft | 385 kts | 263° |
| 2026-04-23 21:18 | 51.69765 | 0.85970 | 15359 ft | 379 kts | 263° |
| 2026-04-23 21:19 | 51.69470 | 0.81781 | 14882 ft | 374 kts | 263° |
| 2026-04-23 21:19 | 51.69179 | 0.77641 | 14415 ft | 371 kts | 263° |
| 2026-04-23 21:19 | 51.68885 | 0.73500 | 13949 ft | 371 kts | 263° |
| 2026-04-23 21:19 | 51.68593 | 0.69392 | 13481 ft | 369 kts | 263° |
| 2026-04-23 21:20 | 51.68304 | 0.65292 | 13018 ft | 367 kts | 263° |
| 2026-04-23 21:20 | 51.68012 | 0.61221 | 12566 ft | 365 kts | 263° |
| 2026-04-23 21:20 | 51.67717 | 0.57154 | 12105 ft | 364 kts | 263° |
| 2026-04-23 21:20 | 51.67426 | 0.53158 | 11833 ft | 353 kts | 263° |
| 2026-04-23 21:21 | 51.67146 | 0.49308 | 11619 ft | 339 kts | 263° |
| 2026-04-23 21:21 | 51.66880 | 0.45626 | 11331 ft | 321 kts | 263° |
| 2026-04-23 21:21 | 51.66620 | 0.42095 | 10881 ft | 316 kts | 263° |
| 2026-04-23 21:21 | 51.66361 | 0.38614 | 10521 ft | 311 kts | 263° |
| 2026-04-23 21:22 | 51.66106 | 0.35176 | 10106 ft | 308 kts | 264° |
| 2026-04-23 21:22 | 51.65853 | 0.31787 | 9470 ft | 302 kts | 264° |
| 2026-04-23 21:22 | 51.65603 | 0.28461 | 8925 ft | 300 kts | 264° |
| 2026-04-23 21:22 | 51.65354 | 0.25136 | 8511 ft | 298 kts | 264° |
| 2026-04-23 21:23 | 51.65108 | 0.21846 | 8138 ft | 294 kts | 264° |
| 2026-04-23 21:23 | 51.64865 | 0.18635 | 7935 ft | 284 kts | 264° |
| 2026-04-23 21:23 | 51.64630 | 0.15542 | 7781 ft | 272 kts | 264° |
| 2026-04-23 21:23 | 51.64427 | 0.12559 | 7558 ft | 265 kts | 265° |
| 2026-04-23 21:24 | 51.64270 | 0.09617 | 7231 ft | 263 kts | 266° |
| 2026-04-23 21:24 | 51.64122 | 0.06728 | 6929 ft | 260 kts | 266° |
| 2026-04-23 21:24 | 51.63973 | 0.03882 | 6901 ft | 255 kts | 266° |
| 2026-04-23 21:24 | 51.63819 | 0.01032 | 6899 ft | 255 kts | 266° |
| 2026-04-23 21:25 | 51.63663 | -0.01815 | 6898 ft | 255 kts | 265° |
| 2026-04-23 21:25 | 51.63504 | -0.04676 | 6897 ft | 257 kts | 265° |
| 2026-04-23 21:25 | 51.63345 | -0.07551 | 6898 ft | 258 kts | 264° |
| 2026-04-23 21:25 | 51.63185 | -0.10415 | 6897 ft | 257 kts | 264° |
| 2026-04-23 21:26 | 51.63022 | -0.13281 | 6897 ft | 257 kts | 264° |
| 2026-04-23 21:26 | 51.62857 | -0.16152 | 6898 ft | 257 kts | 264° |
| 2026-04-23 21:26 | 51.62691 | -0.19022 | 6896 ft | 258 kts | 264° |
| 2026-04-23 21:26 | 51.62527 | -0.21895 | 6895 ft | 258 kts | 264° |
| 2026-04-23 21:27 | 51.62364 | -0.24725 | 6895 ft | 257 kts | 264° |
| 2026-04-23 21:27 | 51.62196 | -0.27603 | 6894 ft | 258 kts | 264° |
| 2026-04-23 21:27 | 51.62031 | -0.30469 | 6895 ft | 258 kts | 264° |
| 2026-04-23 21:27 | 51.61864 | -0.33340 | 6895 ft | 258 kts | 264° |
| 2026-04-23 21:28 | 51.61693 | -0.36217 | 6895 ft | 258 kts | 263° |
| 2026-04-23 21:28 | 51.61523 | -0.39080 | 6896 ft | 257 kts | 264° |
| 2026-04-23 21:28 | 51.61352 | -0.41955 | 6896 ft | 258 kts | 263° |
| 2026-04-23 21:28 | 51.61179 | -0.44825 | 6896 ft | 258 kts | 263° |
| 2026-04-23 21:29 | 51.61008 | -0.47698 | 6895 ft | 258 kts | 264° |
| 2026-04-23 21:29 | 51.60838 | -0.50562 | 6895 ft | 257 kts | 264° |
| 2026-04-23 21:29 | 51.60668 | -0.53432 | 6897 ft | 258 kts | 264° |
| 2026-04-23 21:29 | 51.60493 | -0.56294 | 6897 ft | 258 kts | 263° |
| 2026-04-23 21:30 | 51.60317 | -0.59159 | 6896 ft | 257 kts | 263° |
| 2026-04-23 21:30 | 51.60142 | -0.62034 | 6896 ft | 258 kts | 263° |
| 2026-04-23 21:30 | 51.59967 | -0.64901 | 6892 ft | 258 kts | 263° |
| 2026-04-23 21:30 | 51.59791 | -0.67771 | 6698 ft | 257 kts | 263° |
| 2026-04-23 21:31 | 51.59613 | -0.70628 | 6388 ft | 256 kts | 263° |
| 2026-04-23 21:31 | 51.59237 | -0.73408 | 6093 ft | 255 kts | 244° |
| 2026-04-23 21:31 | 51.58180 | -0.75600 | 5916 ft | 246 kts | 214° |
| 2026-04-23 21:31 | 51.56668 | -0.76784 | 5544 ft | 242 kts | 195° |
| 2026-04-23 21:32 | 51.55071 | -0.77564 | 5148 ft | 243 kts | 192° |
| 2026-04-23 21:32 | 51.53458 | -0.78312 | 4932 ft | 237 kts | 191° |
| 2026-04-23 21:32 | 51.51888 | -0.78702 | 4785 ft | 221 kts | 175° |
| 2026-04-23 21:32 | 51.50442 | -0.78233 | 4629 ft | 206 kts | 153° |
| 2026-04-23 21:33 | 51.49604 | -0.77510 | 4474 ft | 198 kts | 143° |
| 2026-04-23 21:33 | 51.48516 | -0.76249 | 4090 ft | 190 kts | 136° |
| 2026-04-23 21:33 | 51.47755 | -0.74609 | 3611 ft | 181 kts | 109° |
| 2026-04-23 21:33 | 51.47585 | -0.72682 | 3125 ft | 170 kts | 91° |
| 2026-04-23 21:34 | 51.47633 | -0.70842 | 2815 ft | 167 kts | 88° |
| 2026-04-23 21:34 | 51.47671 | -0.69018 | 2573 ft | 158 kts | 89° |
| 2026-04-23 21:34 | 51.47679 | -0.67318 | 2376 ft | 148 kts | 90° |
| 2026-04-23 21:34 | 51.47684 | -0.65675 | 2184 ft | 147 kts | 90° |
| 2026-04-23 21:35 | 51.47695 | -0.63467 | 1901 ft | 149 kts | 89° |
| 2026-04-23 21:35 | 51.47698 | -0.62365 | 1782 ft | 150 kts | 89° |
| 2026-04-23 21:35 | 51.47705 | -0.60699 | 1580 ft | 146 kts | 89° |
| 2026-04-23 21:35 | 51.47711 | -0.59138 | 1394 ft | 134 kts | 89° |
| 2026-04-23 21:36 | 51.47722 | -0.56310 | 1063 ft | 124 kts | 88° |
| 2026-04-23 21:36 | 51.47727 | -0.54923 | 897 ft | 125 kts | 88° |
| 2026-04-23 21:36 | 51.47732 | -0.53525 | 721 ft | 125 kts | 88° |
| 2026-04-23 21:37 | 51.47737 | -0.52130 | 563 ft | 125 kts | 90° |
| 2026-04-23 21:37 | 51.47735 | -0.50739 | 411 ft | 125 kts | 88° |
| 2026-04-23 21:37 | 51.47757 | -0.49348 | 240 ft | 123 kts | 91° |
| 2026-04-23 21:37 | 51.47750 | -0.47965 | 120 ft | 123 kts | 91° |
| 2026-04-23 21:38 | 51.47757 | -0.46653 | 100 ft | 107 kts | 90° |
| 2026-04-23 21:38 | 51.47758 | -0.45841 | 94 ft | 27 kts | 89° |
| 2026-04-23 21:38 | 51.47755 | -0.45580 | 93 ft | 17 kts | 102° |
| 2026-04-23 21:38 | 51.47691 | -0.45479 | 96 ft | 13 kts | 161° |
| 2026-04-23 21:39 | 51.47605 | -0.45468 | 95 ft | 12 kts | 180° |
| 2026-04-23 21:39 | 51.47528 | -0.45497 | 97 ft | 9 kts | 221° |
| 2026-04-23 21:39 | 51.47508 | -0.45601 | 96 ft | 11 kts | 267° |
| 2026-04-23 21:39 | 51.47512 | -0.45750 | 98 ft | 15 kts | 275° |
| 2026-04-23 21:40 | 51.47519 | -0.45939 | 97 ft | 19 kts | 269° |
| 2026-04-23 21:40 | 51.47517 | -0.46165 | 93 ft | 22 kts | 269° |
| 2026-04-23 21:40 | 51.47516 | -0.46427 | 93 ft | 25 kts | 269° |
| 2026-04-23 21:40 | 51.47509 | -0.46718 | 96 ft | 26 kts | 256° |
| 2026-04-23 21:41 | 51.47495 | -0.46845 | 96 ft | 7 kts | 254° |
| 2026-04-23 21:41 | 51.47477 | -0.46881 | 95 ft | 1 kts | 215° |
| 2026-04-23 21:41 | 51.47466 | -0.46889 | 97 ft | 9 kts | 204° |
| 2026-04-23 21:41 | 51.47356 | -0.46874 | 93 ft | 19 kts | 175° |
| 2026-04-23 21:42 | 51.47242 | -0.46871 | 93 ft | 8 kts | 192° |
| 2026-04-23 21:42 | 51.47213 | -0.46942 | 95 ft | 7 kts | 263° |
| 2026-04-23 21:42 | 51.47211 | -0.46986 | 96 ft | 2 kts | 267° |
| 2026-04-23 21:42 | 51.47211 | -0.47004 | 93 ft | 1 kts | 268° |
| 2026-04-23 21:43 | 51.47210 | -0.47017 | 94 ft | 0 kts | 266° |
| 2026-04-23 21:43 | 51.47210 | -0.47019 | 93 ft | 0 kts | 270° |